Time;durP1;ratioP1;P1;durP2;ratioP2;P2;SDS_P1;SDS_P2;PMS_P1;PMS_P2;Temp;Humidity;BMP_temperature;BMP_pressure;BME280_temperature;BME280_humidity;BME280_pressure;Samples;Min_cycle;Max_cycle;Signal;HPM_P1;HPM_P2
2021/01/02 00:01:43;;;;;;;11.95;2.38;;;;;;;18.23;74.07;101643.09;5031081;28;20068;-74
2021/01/02 00:04:08;;;;;;;6.38;2.70;;;;;;;18.22;73.79;101643.97;5030425;28;20053;-74
2021/01/02 00:06:34;;;;;;;3.35;2.30;;;;;;;18.21;73.89;101640.41;5032838;28;20038;-74
2021/01/02 00:08:59;;;;;;;3.40;2.30;;;;;;;18.19;74.14;101647.53;5032157;28;20068;-74
2021/01/02 00:11:24;;;;;;;3.33;1.92;;;;;;;18.24;74.08;101647.53;5032753;28;20033;-74
2021/01/02 00:13:50;;;;;;;11.18;2.20;;;;;;;18.20;74.29;101654.66;5031171;28;20479;-74
2021/01/02 00:16:15;;;;;;;6.07;2.13;;;;;;;18.19;73.95;101651.97;5031387;28;20037;-74
2021/01/02 00:18:40;;;;;;;2.10;1.90;;;;;;;18.20;74.31;101651.97;5031826;28;20060;-74
2021/01/02 00:21:06;;;;;;;4.80;1.70;;;;;;;18.20;73.99;101653.75;5030987;28;20037;-73
2021/01/02 00:23:31;;;;;;;2.25;2.05;;;;;;;18.19;74.24;101658.22;5032465;28;20049;-75
2021/01/02 00:25:56;;;;;;;3.35;2.38;;;;;;;18.18;73.82;101660.91;5030441;28;20049;-74
2021/01/02 00:28:22;;;;;;;10.98;2.20;;;;;;;18.21;74.43;101666.25;5030848;28;20088;-74
2021/01/02 00:30:47;;;;;;;2.95;1.90;;;;;;;18.21;74.13;101666.25;5026437;28;20041;-74
2021/01/02 00:33:12;;;;;;;3.80;1.70;;;;;;;18.21;73.87;101661.78;5031363;28;20057;-74
2021/01/02 00:35:38;;;;;;;4.57;1.90;;;;;;;18.20;73.96;101667.13;5032086;28;20068;-74
2021/01/02 00:38:03;;;;;;;3.83;2.17;;;;;;;18.20;74.02;101665.34;5030503;28;20034;-74
2021/01/02 00:40:28;;;;;;;1.88;1.73;;;;;;;18.18;74.26;101660.91;5030335;28;20091;-74
2021/01/02 00:42:54;;;;;;;2.20;1.83;;;;;;;18.21;74.36;101666.25;5029831;28;20048;-74
2021/01/02 00:45:19;;;;;;;3.33;1.42;;;;;;;18.22;74.03;101671.59;5032051;28;20057;-74
2021/01/02 00:47:44;;;;;;;2.88;1.60;;;;;;;18.24;74.22;101675.16;5030471;28;20115;-75
2021/01/02 00:50:10;;;;;;;3.05;1.80;;;;;;;18.23;74.00;101678.72;5030317;28;20041;-75
2021/01/02 00:52:35;;;;;;;3.90;1.90;;;;;;;18.19;74.27;101681.38;5030392;28;20537;-75
2021/01/02 00:55:00;;;;;;;7.05;2.08;;;;;;;18.17;73.91;101670.72;5029504;28;20124;-75
2021/01/02 00:57:26;;;;;;;3.53;2.08;;;;;;;18.20;74.63;101684.06;5030185;28;20068;-75
2021/01/02 00:59:51;;;;;;;8.23;1.80;;;;;;;18.20;74.42;101684.06;5030766;28;20049;-75
2021/01/02 01:02:16;;;;;;;4.25;1.77;;;;;;;18.19;73.75;101684.06;5029376;28;20099;-75
2021/01/02 01:04:42;;;;;;;3.05;1.85;;;;;;;18.21;73.78;101682.28;5030233;28;20402;-75
2021/01/02 01:07:07;;;;;;;1.83;1.63;;;;;;;18.18;74.43;101683.16;5031019;28;20414;-75
2021/01/02 01:09:32;;;;;;;5.15;1.55;;;;;;;18.25;74.02;101679.59;5029994;28;20411;-74
2021/01/02 01:11:58;;;;;;;7.07;1.35;;;;;;;18.22;74.23;101676.06;5029697;28;20406;-74
2021/01/02 01:14:23;;;;;;;3.28;1.52;;;;;;;18.28;74.08;101678.72;5031328;28;20458;-74
2021/01/02 01:16:48;;;;;;;9.80;1.80;;;;;;;18.32;73.81;101672.47;5030750;28;20458;-74
2021/01/02 01:19:14;;;;;;;8.25;1.83;;;;;;;18.29;73.75;101683.16;5017284;28;20045;-73
2021/01/02 01:21:39;;;;;;;6.95;1.65;;;;;;;18.29;74.06;101676.03;5029130;28;20046;-73
2021/01/02 01:24:04;;;;;;;3.35;1.77;;;;;;;18.28;73.80;101668.03;5030384;28;20042;-72
2021/01/02 01:26:30;;;;;;;5.32;1.70;;;;;;;18.26;74.25;101661.78;5030554;28;20256;-73
2021/01/02 01:28:55;;;;;;;1.92;1.60;;;;;;;18.26;74.24;101664.44;5028698;28;20123;-73
2021/01/02 01:31:20;;;;;;;2.22;1.65;;;;;;;18.27;74.15;101663.56;5029142;28;20111;-73
2021/01/02 01:33:45;;;;;;;1.92;1.60;;;;;;;18.29;73.42;101656.44;5030806;28;20048;-73
2021/01/02 01:36:11;;;;;;;5.88;1.60;;;;;;;18.25;73.92;101666.22;5028474;28;20056;-73
2021/01/02 01:38:36;;;;;;;4.15;1.40;;;;;;;18.24;73.59;101664.47;5030461;28;20037;-73
2021/01/02 01:41:01;;;;;;;2.78;1.67;;;;;;;18.28;74.01;101655.53;5030386;28;20040;-73
2021/01/02 01:43:27;;;;;;;2.55;1.40;;;;;;;18.25;73.63;101668.91;5029149;28;20037;-73
2021/01/02 01:45:52;;;;;;;4.57;1.52;;;;;;;18.23;73.62;101665.38;5030580;28;20406;-74
2021/01/02 01:48:17;;;;;;;2.45;1.50;;;;;;;18.23;74.15;101660.00;5030721;28;20371;-73
2021/01/02 01:50:43;;;;;;;2.28;1.30;;;;;;;18.21;73.54;101655.56;5030636;28;20410;-73
2021/01/02 01:53:08;;;;;;;1.45;1.30;;;;;;;18.22;74.12;101655.56;5028812;28;20041;-74
2021/01/02 01:55:33;;;;;;;2.10;1.40;;;;;;;18.24;73.75;101660.91;5029377;28;20048;-74
2021/01/02 01:57:59;;;;;;;2.80;1.38;;;;;;;18.24;73.51;101663.59;5029814;28;20033;-73
2021/01/02 02:00:24;;;;;;;2.33;1.40;;;;;;;18.21;73.75;101647.53;5029937;28;20041;-73
2021/01/02 02:02:49;;;;;;;3.92;1.17;;;;;;;18.23;73.71;101651.09;5028715;28;20042;-73
2021/01/02 02:05:15;;;;;;;1.80;1.38;;;;;;;18.20;73.91;101654.66;5028556;28;20046;-73
2021/01/02 02:07:40;;;;;;;4.65;1.35;;;;;;;18.26;74.05;101654.66;5029387;28;20513;-73
2021/01/02 02:10:05;;;;;;;2.70;1.50;;;;;;;18.23;74.26;101652.00;5029445;28;20034;-73
2021/01/02 02:12:31;;;;;;;2.65;1.33;;;;;;;18.23;73.73;101654.66;5030355;28;20045;-74
2021/01/02 02:14:56;;;;;;;1.77;1.10;;;;;;;18.24;74.19;101664.47;5029826;28;20068;-73
2021/01/02 02:17:21;;;;;;;2.25;1.42;;;;;;;18.21;73.66;101660.91;5030400;28;20389;-73
2021/01/02 02:19:47;;;;;;;2.53;1.30;;;;;;;18.24;73.73;101660.91;5030145;28;20402;-73
2021/01/02 02:22:12;;;;;;;1.30;1.20;;;;;;;18.22;73.81;101660.00;5030009;28;20397;-73
2021/01/02 02:24:37;;;;;;;2.95;1.45;;;;;;;18.23;73.82;101649.31;5028565;28;20064;-73
2021/01/02 02:27:03;;;;;;;5.38;1.20;;;;;;;18.21;73.82;101656.44;5027854;28;20041;-73
2021/01/02 02:29:28;;;;;;;3.85;1.38;;;;;;;18.23;73.62;101651.09;5028697;28;20057;-73
2021/01/02 02:31:53;;;;;;;2.38;1.45;;;;;;;18.20;74.11;101645.75;5029280;28;20029;-73
2021/01/02 02:34:19;;;;;;;19.75;1.25;;;;;;;18.18;74.12;101645.75;5030414;28;20052;-75
2021/01/02 02:36:44;;;;;;;6.93;1.33;;;;;;;18.20;73.57;101645.75;5030546;28;20033;-75
2021/01/02 02:39:10;;;;;;;1.83;1.20;;;;;;;18.19;73.53;101639.50;5029598;28;20037;-76
2021/01/02 02:41:35;;;;;;;2.53;1.20;;;;;;;18.18;73.85;101642.22;5029105;28;20034;-76
2021/01/02 02:44:00;;;;;;;4.32;1.38;;;;;;;18.18;73.83;101642.22;5028704;28;20387;-75
2021/01/02 02:46:26;;;;;;;1.52;1.30;;;;;;;18.18;73.54;101643.06;5028713;28;20045;-75
2021/01/02 02:48:51;;;;;;;2.95;1.40;;;;;;;18.17;73.73;101638.66;5029617;28;20050;-75
2021/01/02 02:51:16;;;;;;;9.05;1.25;;;;;;;18.17;73.46;101640.41;5030212;28;20048;-74
2021/01/02 02:53:42;;;;;;;2.83;1.27;;;;;;;18.16;73.75;101644.88;5029253;28;20046;-74
2021/01/02 02:56:07;;;;;;;2.67;1.60;;;;;;;18.16;73.42;101641.31;5029833;28;20125;-74
2021/01/02 02:58:32;;;;;;;2.95;1.63;;;;;;;18.19;73.15;101639.50;5029969;28;20117;-73
2021/01/02 03:00:58;;;;;;;3.00;1.40;;;;;;;18.22;73.67;101638.63;5029203;28;20498;-73
2021/01/02 03:03:23;;;;;;;2.35;1.23;;;;;;;18.21;73.35;101640.41;5027985;28;20175;-73
2021/01/02 03:05:48;;;;;;;5.50;1.30;;;;;;;18.19;73.62;101634.16;5028792;28;20038;-73
2021/01/02 03:08:14;;;;;;;6.30;1.50;;;;;;;18.21;73.55;101640.41;5029344;28;20068;-73
2021/01/02 03:10:39;;;;;;;3.10;1.20;;;;;;;18.17;73.66;101637.75;5028704;28;20045;-73
2021/01/02 03:13:05;;;;;;;1.17;1.02;;;;;;;18.15;73.86;101629.72;5027734;28;20045;-74
2021/01/02 03:15:30;;;;;;;3.58;1.40;;;;;;;18.14;73.29;101632.41;5030024;28;20052;-74
2021/01/02 03:17:55;;;;;;;2.05;1.40;;;;;;;18.13;73.54;101625.25;5028869;28;20064;-73
2021/01/02 03:20:21;;;;;;;2.78;1.20;;;;;;;18.13;73.19;101628.81;5031630;28;20503;-73
2021/01/02 03:22:46;;;;;;;7.20;1.15;;;;;;;18.14;73.64;101630.63;5033707;28;20049;-73
2021/01/02 03:25:12;;;;;;;4.15;1.50;;;;;;;18.13;73.53;101630.59;5031569;28;20041;-73
2021/01/02 03:27:37;;;;;;;3.40;1.30;;;;;;;18.14;73.27;101635.06;5033236;28;20049;-73
2021/01/02 03:30:02;;;;;;;1.45;1.00;;;;;;;18.13;73.76;101641.28;5032486;28;20678;-73
2021/01/02 03:32:28;;;;;;;8.05;1.10;;;;;;;18.13;73.17;101641.28;5032855;28;20406;-73
2021/01/02 03:34:53;;;;;;;1.58;1.08;;;;;;;18.13;73.66;101635.97;5030435;28;20129;-73
2021/01/02 03:37:18;;;;;;;7.32;1.30;;;;;;;18.12;73.77;101644.84;5032969;28;20068;-73
2021/01/02 03:39:43;;;;;;;1.58;1.00;;;;;;;18.13;73.25;101647.53;5033013;28;20046;-74
2021/01/02 03:42:09;;;;;;;3.00;1.17;;;;;;;18.18;73.65;101642.22;5032432;28;20037;-74
2021/01/02 03:44:34;;;;;;;2.47;1.15;;;;;;;18.14;73.22;101652.00;5031712;28;20045;-74
2021/01/02 03:47:00;;;;;;;3.30;1.30;;;;;;;18.14;73.12;101640.41;5032217;28;20038;-73
2021/01/02 03:49:25;;;;;;;2.05;1.10;;;;;;;18.12;73.47;101645.75;5031569;28;20521;-73
2021/01/02 03:51:50;;;;;;;13.05;1.30;;;;;;;18.17;72.97;101646.66;5031140;28;20557;-74
2021/01/02 03:54:17;;;;;;;4.38;1.15;;;;;;;18.13;73.33;101655.56;5032256;28;20445;-73
2021/01/02 03:56:42;;;;;;;1.27;1.00;;;;;;;18.11;72.99;101660.03;5032981;28;20048;-73
2021/01/02 03:59:07;;;;;;;1.70;1.00;;;;;;;18.11;72.96;101654.69;5032395;28;20037;-73
2021/01/02 04:01:33;;;;;;;1.65;1.08;;;;;;;18.20;73.19;101662.69;5031095;28;20041;-74
2021/01/02 04:03:58;;;;;;;5.38;1.10;;;;;;;18.19;73.69;101662.66;5032072;28;20048;-74
2021/01/02 04:06:23;;;;;;;2.88;1.10;;;;;;;18.17;73.66;101667.16;5032309;28;20083;-73
2021/01/02 04:08:49;;;;;;;12.68;1.30;;;;;;;18.19;73.14;101663.56;5031520;28;20041;-73
2021/01/02 04:11:14;;;;;;;1.25;0.90;;;;;;;18.16;73.21;101663.59;5031907;28;20382;-73
2021/01/02 04:13:39;;;;;;;1.52;0.95;;;;;;;18.17;73.14;101672.50;5032285;28;20402;-73
2021/01/02 04:16:05;;;;;;;1.58;0.80;;;;;;;18.15;73.49;101667.16;5030559;28;20445;-73
2021/01/02 04:18:30;;;;;;;9.43;1.20;;;;;;;18.16;73.50;101668.94;5031262;28;20075;-73
2021/01/02 04:20:55;;;;;;;1.13;1.00;;;;;;;18.16;73.44;101668.03;5029603;28;20044;-74
2021/01/02 04:23:21;;;;;;;1.85;1.10;;;;;;;18.17;73.17;101680.50;5032226;28;20068;-73
2021/01/02 04:25:46;;;;;;;5.13;1.10;;;;;;;18.18;73.33;101680.50;5032520;28;20052;-73
2021/01/02 04:28:11;;;;;;;2.72;0.98;;;;;;;18.20;73.22;101677.81;5032128;28;20038;-73
2021/01/02 04:30:37;;;;;;;5.88;1.25;;;;;;;18.16;72.79;101684.97;5028433;28;20056;-73
2021/01/02 04:33:02;;;;;;;2.47;0.80;;;;;;;18.17;73.31;101686.75;5031589;28;20045;-74
2021/01/02 04:35:27;;;;;;;2.70;0.90;;;;;;;18.16;72.71;101690.31;5030758;28;20037;-73
2021/01/02 04:37:53;;;;;;;5.07;0.90;;;;;;;18.17;73.01;101696.56;5030570;28;20042;-73
2021/01/02 04:40:18;;;;;;;1.40;0.80;;;;;;;18.17;73.05;101696.56;5030448;28;20120;-73
2021/01/02 04:42:43;;;;;;;6.47;0.95;;;;;;;18.15;72.75;101699.22;5031755;28;20406;-73
2021/01/02 04:45:09;;;;;;;1.25;0.90;;;;;;;18.15;72.61;101703.66;5030205;28;20124;-73
2021/01/02 04:47:34;;;;;;;6.45;0.90;;;;;;;18.14;72.58;101712.56;5030374;28;20042;-73
2021/01/02 04:49:59;;;;;;;1.25;0.98;;;;;;;18.12;73.21;101717.91;5031127;28;20049;-73
2021/01/02 04:52:25;;;;;;;1.25;1.00;;;;;;;18.14;72.40;101712.56;5031599;28;20130;-73
2021/01/02 04:54:50;;;;;;;1.48;1.00;;;;;;;18.12;73.02;101720.59;5030314;28;20049;-73
2021/01/02 04:57:15;;;;;;;1.40;0.93;;;;;;;18.13;72.71;101721.47;5029200;28;20237;-74
2021/01/02 04:59:41;;;;;;;1.85;0.90;;;;;;;18.13;72.28;101722.38;5029890;28;20140;-73
2021/01/02 05:02:06;;;;;;;2.38;1.00;;;;;;;18.15;72.25;101730.41;5029922;28;20048;-73
2021/01/02 05:04:31;;;;;;;8.07;0.98;;;;;;;18.22;72.70;101732.19;5031306;28;20046;-73
2021/01/02 05:06:57;;;;;;;2.90;0.90;;;;;;;18.19;72.24;101727.72;5030732;28;20059;-73
2021/01/02 05:09:22;;;;;;;4.15;0.98;;;;;;;18.15;72.40;101725.94;5031495;28;20641;-73
2021/01/02 05:11:47;;;;;;;6.80;0.80;;;;;;;18.13;72.19;101730.38;5029300;28;20418;-72
2021/01/02 05:14:13;;;;;;;15.32;1.17;;;;;;;18.13;72.35;101726.81;5029482;28;20405;-74
2021/01/02 05:16:42;;;;;;;28.55;1.45;;;;;;;18.16;72.57;101734.84;5030989;28;20394;-74
2021/01/02 05:19:07;;;;;;;4.05;0.90;;;;;;;18.17;72.38;101731.31;5029514;28;20041;-73
2021/01/02 05:21:32;;;;;;;5.03;1.00;;;;;;;18.14;72.13;101734.84;5029882;28;20092;-74
2021/01/02 05:23:58;;;;;;;16.48;1.00;;;;;;;18.12;72.09;101733.94;5030430;28;20045;-74
2021/01/02 05:26:23;;;;;;;1.40;0.80;;;;;;;18.12;72.16;101735.72;5029971;28;20037;-74
2021/01/02 05:28:48;;;;;;;2.33;0.88;;;;;;;18.12;72.23;101741.06;5030774;28;20053;-74
2021/01/02 05:31:14;;;;;;;3.35;0.88;;;;;;;18.13;72.16;101734.84;5030157;28;20432;-73
2021/01/02 05:33:39;;;;;;;0.90;0.77;;;;;;;18.11;72.37;101740.22;5030959;28;20734;-74
2021/01/02 05:36:04;;;;;;;7.07;0.80;;;;;;;18.10;72.60;101742.88;5030631;28;20555;-74
2021/01/02 05:38:30;;;;;;;1.58;0.80;;;;;;;18.12;72.58;101747.31;5030439;28;20509;-74
2021/01/02 05:40:55;;;;;;;1.63;0.82;;;;;;;18.13;71.88;101748.22;5030528;28;20053;-74
2021/01/02 05:43:20;;;;;;;2.65;0.70;;;;;;;18.09;71.92;101752.66;5030054;28;20652;-73
2021/01/02 05:45:46;;;;;;;0.98;0.90;;;;;;;18.08;72.07;101750.00;5029756;28;20025;-73
2021/01/02 05:48:11;;;;;;;1.83;1.10;;;;;;;18.07;71.98;101750.88;5028822;28;20051;-74
2021/01/02 05:50:36;;;;;;;1.23;0.85;;;;;;;18.05;72.03;101756.22;5029761;28;20048;-74
2021/01/02 05:53:01;;;;;;;3.40;0.90;;;;;;;18.08;71.90;101758.91;5030288;28;20049;-73
2021/01/02 05:55:27;;;;;;;1.05;0.77;;;;;;;18.06;71.27;101754.44;5030565;28;20044;-74
2021/01/02 05:57:52;;;;;;;0.75;0.70;;;;;;;18.04;71.90;101759.81;5030216;28;20041;-74
2021/01/02 06:00:17;;;;;;;1.90;0.95;;;;;;;18.03;71.81;101762.47;5029551;28;20034;-74
2021/01/02 06:02:43;;;;;;;2.88;0.90;;;;;;;18.06;71.63;101771.38;5030507;28;20046;-73
2021/01/02 06:05:08;;;;;;;8.07;0.93;;;;;;;18.18;71.07;101773.19;5028742;28;20504;-73
2021/01/02 06:07:33;;;;;;;3.88;1.08;;;;;;;18.22;71.01;101770.50;5030829;28;20100;-74
2021/01/02 06:09:59;;;;;;;2.40;1.17;;;;;;;18.11;70.96;101779.41;5028406;28;20502;-74
2021/01/02 06:12:24;;;;;;;10.63;1.05;;;;;;;18.06;71.26;101783.84;5027636;28;20402;-72
2021/01/02 06:14:49;;;;;;;10.82;1.33;;;;;;;18.14;70.93;101782.06;5004934;28;20519;-73
2021/01/02 06:17:15;;;;;;;18.00;1.00;;;;;;;18.09;70.86;101784.75;5002706;28;20423;-74
2021/01/02 06:19:40;;;;;;;10.57;1.08;;;;;;;18.09;71.16;101782.06;5012000;28;20575;-74
2021/01/02 06:22:05;;;;;;;4.63;0.95;;;;;;;18.09;71.30;101784.75;5015131;28;20469;-73
2021/01/02 06:24:31;;;;;;;7.45;1.00;;;;;;;18.07;71.01;101786.50;5017639;28;20045;-74
2021/01/02 06:26:56;;;;;;;7.47;1.15;;;;;;;18.09;71.21;101787.41;5016821;28;20052;-74
2021/01/02 06:29:21;;;;;;;6.65;0.98;;;;;;;18.10;70.89;101788.31;5018380;28;20129;-74
2021/01/02 06:31:47;;;;;;;8.15;1.73;;;;;;;18.13;71.25;101796.31;5014564;28;20041;-75
2021/01/02 06:34:12;;;;;;;3.20;1.10;;;;;;;18.11;70.82;101801.69;5027655;28;20137;-75
2021/01/02 06:36:39;;;;;;;10.00;0.80;;;;;;;18.09;71.41;101800.78;5029235;28;20037;-75
2021/01/02 06:39:05;;;;;;;17.02;1.23;;;;;;;18.22;71.29;101793.66;5020494;28;20111;-73
2021/01/02 06:41:30;;;;;;;12.82;1.10;;;;;;;18.18;71.56;101797.25;5022694;28;20498;-73
2021/01/02 06:43:55;;;;;;;3.33;1.17;;;;;;;18.21;71.71;101805.25;5010155;28;20433;-74
2021/01/02 06:46:21;;;;;;;4.15;1.10;;;;;;;18.20;71.87;101800.78;5002892;28;20038;-73
2021/01/02 06:48:46;;;;;;;3.50;1.15;;;;;;;18.25;71.16;101802.56;5006561;28;20045;-73
2021/01/02 06:51:11;;;;;;;6.28;1.10;;;;;;;18.21;72.02;101806.13;5019652;28;20051;-74
2021/01/02 06:53:37;;;;;;;2.67;1.20;;;;;;;18.22;71.09;101796.34;5014937;28;20049;-75
2021/01/02 06:56:02;;;;;;;8.13;1.10;;;;;;;18.22;71.58;101804.34;5029246;28;20319;-75
2021/01/02 06:58:27;;;;;;;16.60;1.50;;;;;;;18.26;71.53;101806.13;5029339;28;20041;-73
2021/01/02 07:00:53;;;;;;;3.83;1.10;;;;;;;18.26;71.54;101804.34;5028818;28;20049;-74
2021/01/02 07:03:18;;;;;;;10.45;1.17;;;;;;;18.26;70.98;101807.03;5018103;28;20042;-73
2021/01/02 07:05:43;;;;;;;7.25;1.00;;;;;;;18.24;70.89;101814.19;4997521;28;20042;-74
2021/01/02 07:08:09;;;;;;;9.52;1.10;;;;;;;18.21;71.48;101811.47;5012301;28;20088;-74
2021/01/02 07:10:34;;;;;;;2.92;1.20;;;;;;;18.25;71.07;101807.91;5013464;28;20044;-73
2021/01/02 07:12:59;;;;;;;1.30;0.82;;;;;;;18.25;71.14;101810.59;5012274;28;20041;-73
2021/01/02 07:15:25;;;;;;;3.05;1.27;;;;;;;18.26;71.42;101808.81;5012716;28;20118;-73
2021/01/02 07:17:50;;;;;;;5.95;1.15;;;;;;;18.24;70.85;101811.50;5013613;28;20139;-74
2021/01/02 07:20:15;;;;;;;4.70;0.90;;;;;;;18.21;70.91;101810.59;5011796;28;20037;-78
2021/01/02 07:22:41;;;;;;;5.85;1.08;;;;;;;18.20;71.38;101814.16;5012928;28;20451;-74
2021/01/02 07:25:08;;;;;;;6.75;1.20;;;;;;;18.20;71.00;101819.50;5011925;28;20116;-77
2021/01/02 07:27:33;;;;;;;12.10;1.08;;;;;;;18.25;71.25;101815.94;5012496;28;20034;-79
2021/01/02 07:29:59;;;;;;;7.68;1.25;;;;;;;18.24;71.25;101811.50;5013208;28;20038;-77
2021/01/02 07:32:24;;;;;;;16.48;1.17;;;;;;;18.22;70.96;101815.94;5012640;28;20172;-79
2021/01/02 07:34:50;;;;;;;14.70;1.60;;;;;;;18.21;71.27;101815.94;5014009;28;20522;-78
2021/01/02 07:37:15;;;;;;;10.30;1.05;;;;;;;18.18;71.37;101819.47;5013452;28;20108;-79
2021/01/02 07:39:40;;;;;;;12.85;1.52;;;;;;;18.22;71.33;101809.72;5012492;28;20618;-74
2021/01/02 07:42:06;;;;;;;29.67;1.35;;;;;;;18.40;70.65;101814.16;5000366;28;20045;-73
2021/01/02 07:44:31;;;;;;;27.65;1.25;;;;;;;18.27;70.88;101816.84;5031622;28;20041;-75
2021/01/02 07:46:57;;;;;;;5.68;0.95;;;;;;;18.25;70.93;101823.06;5028890;28;20073;-75
2021/01/02 07:49:22;;;;;;;10.85;1.42;;;;;;;18.23;71.87;101824.84;5024365;28;20044;-75
2021/01/02 07:51:47;;;;;;;38.47;1.85;;;;;;;18.36;72.51;101826.66;5006635;28;20544;-78
2021/01/02 07:54:13;;;;;;;45.88;1.95;;;;;;;18.43;72.05;101827.53;5009782;28;20048;-75
2021/01/02 07:56:38;;;;;;;65.05;2.47;;;;;;;18.49;72.32;101823.09;5007675;28;20042;-74
2021/01/02 07:59:03;;;;;;;99.05;3.97;;;;;;;18.54;71.79;101821.31;5007837;28;20740;-77
2021/01/02 08:01:29;;;;;;;72.53;3.13;;;;;;;18.39;71.69;101831.09;5012026;28;20414;-78
2021/01/02 08:03:54;;;;;;;46.90;2.30;;;;;;;18.26;72.05;101828.41;5021192;28;20463;-77
2021/01/02 08:06:19;;;;;;;40.60;2.20;;;;;;;18.18;71.61;101823.97;5014094;28;20160;-76
2021/01/02 08:08:45;;;;;;;33.88;1.65;;;;;;;18.15;71.87;101816.81;5027880;28;20084;-77
2021/01/02 08:11:10;;;;;;;21.23;2.53;;;;;;;18.14;71.42;101816.81;5031086;28;20127;-78
2021/01/02 08:13:35;;;;;;;9.23;1.10;;;;;;;18.13;71.69;101823.94;5019569;28;20041;-78
2021/01/02 08:16:01;;;;;;;16.25;1.40;;;;;;;18.10;71.57;101823.94;5011434;28;20096;-76
2021/01/02 08:18:26;;;;;;;17.55;1.20;;;;;;;18.10;71.71;101817.72;5016237;28;20443;-78
2021/01/02 08:20:51;;;;;;;12.38;1.77;;;;;;;18.11;71.28;101819.50;5018525;28;20508;-76
2021/01/02 08:23:18;;;;;;;11.43;1.50;;;;;;;18.11;70.95;101831.09;5019722;28;21115;-77
2021/01/02 08:25:43;;;;;;;24.38;1.80;;;;;;;18.10;71.11;101828.41;5019935;28;20048;-79
2021/01/02 08:28:09;;;;;;;15.00;1.90;;;;;;;18.08;71.18;101825.72;5025460;28;20033;-78
2021/01/02 08:30:34;;;;;;;14.75;1.80;;;;;;;18.07;70.70;101823.94;5021646;28;20042;-78
2021/01/02 08:33:00;;;;;;;18.33;2.10;;;;;;;18.07;70.87;101820.34;5030844;28;20048;-78
2021/01/02 08:35:25;;;;;;;7.78;1.80;;;;;;;18.05;70.78;101815.00;5022165;28;20457;-78
2021/01/02 08:37:50;;;;;;;7.90;2.22;;;;;;;18.06;71.01;101823.91;5016446;28;20712;-78
2021/01/02 08:40:15;;;;;;;9.55;2.20;;;;;;;18.04;70.97;101821.28;5016371;28;20659;-77
2021/01/02 08:42:41;;;;;;;5.00;2.00;;;;;;;18.05;70.36;101809.66;5017945;28;20041;-76
2021/01/02 08:45:06;;;;;;;8.60;2.10;;;;;;;18.07;70.30;101812.34;5016221;28;20402;-78
2021/01/02 08:47:32;;;;;;;10.80;2.90;;;;;;;18.03;70.88;101808.78;5007591;28;20654;-78
2021/01/02 08:49:57;;;;;;;7.07;2.55;;;;;;;18.04;70.48;101804.34;5010515;28;20038;-78
2021/01/02 08:52:23;;;;;;;7.63;2.75;;;;;;;18.05;70.51;101803.47;5008191;28;20048;-76
2021/01/02 08:54:48;;;;;;;11.13;2.42;;;;;;;18.07;70.16;101802.56;5006639;28;20034;-76
2021/01/02 08:57:13;;;;;;;23.83;3.42;;;;;;;18.08;69.67;101811.47;5003466;28;20065;-77
2021/01/02 08:59:39;;;;;;;21.05;2.83;;;;;;;18.12;70.01;101805.22;5005456;28;20042;-78
2021/01/02 09:02:04;;;;;;;10.32;3.15;;;;;;;18.08;69.33;101804.34;5002154;28;20097;-78
2021/01/02 09:04:29;;;;;;;11.30;3.03;;;;;;;18.03;69.62;101792.75;5010428;28;20046;-75
2021/01/02 09:06:55;;;;;;;12.23;3.10;;;;;;;18.04;69.23;101790.97;5008359;28;20030;-75
2021/01/02 09:09:20;;;;;;;15.77;2.95;;;;;;;18.03;69.68;101787.41;5029147;28;20117;-75
2021/01/02 09:11:45;;;;;;;10.40;3.63;;;;;;;18.02;69.16;101788.28;5011924;28;20058;-74
2021/01/02 09:14:11;;;;;;;13.52;3.42;;;;;;;18.04;69.49;101780.28;5013833;28;20049;-76
2021/01/02 09:16:36;;;;;;;12.90;3.85;;;;;;;18.03;69.24;101784.75;5024674;28;20052;-78
2021/01/02 09:19:01;;;;;;;20.83;5.35;;;;;;;18.10;69.27;101775.84;5029089;28;20038;-78
2021/01/02 09:21:27;;;;;;;21.20;4.65;;;;;;;18.11;69.39;101784.75;5018419;28;20034;-78
2021/01/02 09:23:53;;;;;;;28.52;5.35;;;;;;;18.08;69.15;101776.72;5028343;28;20072;-78
2021/01/02 09:26:18;;;;;;;36.33;5.65;;;;;;;18.05;69.08;101776.72;5029541;28;20044;-77
2021/01/02 09:28:44;;;;;;;17.40;5.45;;;;;;;18.03;69.16;101770.47;5007115;28;20137;-78
2021/01/02 09:31:09;;;;;;;30.80;6.55;;;;;;;18.03;69.07;101763.34;5008493;28;20121;-77
2021/01/02 09:33:34;;;;;;;18.23;7.45;;;;;;;18.02;68.68;101772.25;5010489;28;20050;-78
2021/01/02 09:36:00;;;;;;;15.45;7.18;;;;;;;18.01;68.64;101778.50;5009297;28;20050;-77
2021/01/02 09:38:25;;;;;;;21.92;8.32;;;;;;;18.01;69.05;101773.16;5011293;28;20030;-76
2021/01/02 09:40:50;;;;;;;22.83;8.65;;;;;;;18.01;68.97;101772.25;5009956;28;20556;-77
2021/01/02 09:43:16;;;;;;;20.38;9.43;;;;;;;18.02;68.81;101768.69;5009753;28;20556;-77
2021/01/02 09:45:41;;;;;;;16.77;9.20;;;;;;;18.01;68.80;101759.78;5011181;28;20042;-78
2021/01/02 09:48:06;;;;;;;19.13;9.40;;;;;;;18.02;68.28;101761.56;5010445;28;20084;-78
2021/01/02 09:50:33;;;;;;;21.35;9.20;;;;;;;18.03;68.04;101759.78;5009693;28;20042;-78
2021/01/02 09:52:58;;;;;;;14.90;7.53;;;;;;;18.03;68.56;101757.13;5008920;28;20073;-79
2021/01/02 09:55:24;;;;;;;61.35;9.30;;;;;;;18.17;67.74;101756.25;5009362;28;20122;-74
2021/01/02 09:57:49;;;;;;;59.80;8.75;;;;;;;18.25;67.60;101753.53;5010505;28;20030;-75
2021/01/02 10:00:14;;;;;;;26.00;8.02;;;;;;;18.16;67.51;101748.22;5010405;28;20037;-78
2021/01/02 10:02:40;;;;;;;37.00;8.43;;;;;;;18.08;67.99;101742.88;5022341;28;20046;-78
2021/01/02 10:05:05;;;;;;;39.78;9.13;;;;;;;18.09;68.21;101730.41;5003548;28;20034;-78
2021/01/02 10:07:30;;;;;;;38.25;9.43;;;;;;;18.08;68.20;101734.84;5009714;28;20627;-77
2021/01/02 10:09:56;;;;;;;28.35;9.20;;;;;;;18.08;68.15;101741.97;5009269;28;20541;-77
2021/01/02 10:12:21;;;;;;;33.10;9.15;;;;;;;18.10;68.10;101729.50;5010749;28;20514;-76
2021/01/02 10:14:47;;;;;;;39.75;9.27;;;;;;;18.11;67.92;101729.53;5010815;28;20041;-76
2021/01/02 10:17:12;;;;;;;26.73;8.13;;;;;;;18.10;67.77;101717.03;5011332;28;20411;-77
2021/01/02 10:19:37;;;;;;;18.42;7.40;;;;;;;18.07;67.17;101722.38;5021900;28;20445;-77
2021/01/02 10:22:03;;;;;;;22.58;7.78;;;;;;;18.05;67.24;101724.16;5028383;28;20116;-79
2021/01/02 10:24:28;;;;;;;16.38;6.55;;;;;;;18.05;67.75;101728.63;5029877;28;20029;-79
2021/01/02 10:26:53;;;;;;;28.95;7.07;;;;;;;18.04;67.24;101719.72;5019416;28;20038;-77
2021/01/02 10:29:19;;;;;;;14.88;5.82;;;;;;;18.03;67.66;101725.94;5014585;28;20038;-78
2021/01/02 10:31:44;;;;;;;11.68;6.35;;;;;;;18.04;67.90;101713.47;5027363;28;20045;-78
2021/01/02 10:34:09;;;;;;;17.75;6.57;;;;;;;18.05;67.40;101723.28;5004974;28;20041;-78
2021/01/02 10:36:35;;;;;;;21.38;7.50;;;;;;;18.04;67.88;101727.72;5007714;28;20042;-79
2021/01/02 10:39:00;;;;;;;15.27;6.25;;;;;;;18.03;67.90;101720.59;5022119;28;20103;-79
2021/01/02 10:41:25;;;;;;;17.63;7.88;;;;;;;18.05;67.31;101712.59;4994022;28;20049;-78
2021/01/02 10:43:51;;;;;;;16.48;7.15;;;;;;;18.04;67.96;101711.69;5027256;28;20077;-79
2021/01/02 10:46:16;;;;;;;14.45;7.18;;;;;;;18.04;67.22;101705.47;5012772;28;20061;-77
2021/01/02 10:48:41;;;;;;;16.33;7.57;;;;;;;18.01;67.47;101698.31;5007678;28;20058;-77
2021/01/02 10:51:07;;;;;;;26.30;7.47;;;;;;;18.03;67.11;101703.69;4999100;28;20096;-77
2021/01/02 10:53:32;;;;;;;21.65;8.15;;;;;;;18.02;67.22;101686.75;5018610;28;20037;-77
2021/01/02 10:55:57;;;;;;;26.90;7.57;;;;;;;18.02;67.42;101693.88;5001321;28;20050;-78
2021/01/02 10:58:23;;;;;;;15.70;7.50;;;;;;;18.01;67.75;101689.41;5012509;28;20054;-77
2021/01/02 11:00:48;;;;;;;13.70;6.80;;;;;;;18.01;67.78;101682.28;5013835;28;20056;-79
2021/01/02 11:03:13;;;;;;;14.07;6.22;;;;;;;18.04;67.49;101679.63;5013730;28;20038;-77
2021/01/02 11:05:39;;;;;;;15.23;6.82;;;;;;;18.01;67.31;101679.63;5012792;28;20050;-78
2021/01/02 11:08:04;;;;;;;15.00;6.82;;;;;;;18.02;67.42;101675.16;5027930;28;20498;-79
2021/01/02 11:10:30;;;;;;;47.80;8.05;;;;;;;18.05;67.38;101670.69;5030831;28;20532;-78
2021/01/02 11:12:55;;;;;;;80.82;8.77;;;;;;;18.10;67.22;101657.34;5032175;28;20049;-78